Time;durP1;ratioP1;P1;durP2;ratioP2;P2;SDS_P1;SDS_P2;PMS_P1;PMS_P2;Temp;Humidity;BMP_temperature;BMP_pressure;BME280_temperature;BME280_humidity;BME280_pressure;Samples;Min_cycle;Max_cycle;Signal;HPM_P1;HPM_P2
2023/04/28 00:01:18;;;;;;;22.40;15.95;;;6.20;99.90;;;;;;5076992;28;20051;-68
2023/04/28 00:03:44;;;;;;;24.27;16.42;;;6.20;99.90;;;;;;5075163;28;20044;-68
2023/04/28 00:06:10;;;;;;;21.17;16.02;;;6.20;99.90;;;;;;5089070;28;20044;-69
2023/04/28 00:08:36;;;;;;;22.15;16.27;;;6.20;99.90;;;;;;5081264;28;20554;-69
2023/04/28 00:11:02;;;;;;;24.80;16.05;;;6.20;99.90;;;;;;5085771;28;20036;-68
2023/04/28 00:13:27;;;;;;;22.48;15.90;;;6.20;99.90;;;;;;5083325;28;20886;-69
2023/04/28 00:15:53;;;;;;;26.05;15.98;;;6.20;99.90;;;;;;5083609;28;20428;-68
2023/04/28 00:18:19;;;;;;;24.13;16.75;;;6.20;99.90;;;;;;5085696;28;20032;-68
2023/04/28 00:20:45;;;;;;;30.35;17.08;;;6.10;99.90;;;;;;5074705;28;20051;-69
2023/04/28 00:23:11;;;;;;;21.73;16.33;;;6.20;99.90;;;;;;5081513;28;20417;-68
2023/04/28 00:25:36;;;;;;;21.92;15.90;;;6.10;99.90;;;;;;5071971;28;20040;-70
2023/04/28 00:28:03;;;;;;;25.70;16.92;;;6.10;99.90;;;;;;5076029;28;20452;-69
2023/04/28 00:30:30;;;;;;;22.48;16.80;;;6.10;99.90;;;;;;5078088;28;20462;-68
2023/04/28 00:32:55;;;;;;;25.30;16.90;;;6.10;99.90;;;;;;5083885;28;20044;-68
2023/04/28 00:35:21;;;;;;;25.10;17.23;;;6.20;99.90;;;;;;5079341;28;20036;-69
2023/04/28 00:37:47;;;;;;;22.88;17.95;;;6.20;99.90;;;;;;5073034;28;20032;-68
2023/04/28 00:40:13;;;;;;;20.00;16.25;;;6.20;99.90;;;;;;5079237;28;20040;-68
2023/04/28 00:42:39;;;;;;;21.25;15.27;;;6.20;99.90;;;;;;5082945;28;20147;-68
2023/04/28 00:45:06;;;;;;;24.08;16.75;;;6.10;99.90;;;;;;5077660;28;20028;-69
2023/04/28 00:47:36;;;;;;;22.52;16.15;;;6.20;99.90;;;;;;5081454;28;20040;-68
2023/04/28 00:50:04;;;;;;;26.75;17.98;;;6.10;99.90;;;;;;5083563;28;20565;-68
2023/04/28 00:52:31;;;;;;;25.80;17.15;;;6.10;99.90;;;;;;5076404;28;20052;-69
2023/04/28 00:54:56;;;;;;;28.35;17.77;;;6.10;99.90;;;;;;5079324;28;20047;-68
2023/04/28 00:57:23;;;;;;;25.20;17.67;;;6.10;99.90;;;;;;5107781;27;20032;-68
2023/04/28 00:59:49;;;;;;;25.75;17.48;;;6.20;99.90;;;;;;5077489;28;20463;-69
2023/04/28 01:02:18;;;;;;;23.38;17.48;;;6.10;99.90;;;;;;5079136;28;20052;-69
2023/04/28 01:04:48;;;;;;;24.27;17.95;;;6.20;99.90;;;;;;5078723;28;20144;-69
2023/04/28 01:07:14;;;;;;;28.45;19.20;;;6.20;99.90;;;;;;5075488;28;20421;-69
2023/04/28 01:09:39;;;;;;;36.30;20.63;;;6.10;99.90;;;;;;5075941;28;20041;-69
2023/04/28 01:12:05;;;;;;;31.42;19.60;;;6.10;99.90;;;;;;5086335;28;20045;-69
2023/04/28 01:14:33;;;;;;;32.95;20.42;;;6.10;99.90;;;;;;5074967;28;20040;-69
2023/04/28 01:16:59;;;;;;;26.45;19.55;;;6.10;99.90;;;;;;5080095;28;20059;-68
2023/04/28 01:19:24;;;;;;;33.15;21.13;;;6.10;99.90;;;;;;5106552;27;20047;-68
2023/04/28 01:21:51;;;;;;;36.63;22.88;;;6.10;99.90;;;;;;5083335;28;20131;-69
2023/04/28 01:24:17;;;;;;;33.15;21.20;;;6.20;99.90;;;;;;5079379;28;20036;-69
2023/04/28 01:26:43;;;;;;;30.08;21.38;;;6.20;99.90;;;;;;5073073;28;20075;-69
2023/04/28 01:29:09;;;;;;;36.35;23.30;;;6.10;99.90;;;;;;5070190;28;20052;-68
2023/04/28 01:31:34;;;;;;;35.05;22.08;;;6.10;99.90;;;;;;5076511;28;20044;-69
2023/04/28 01:34:00;;;;;;;28.95;20.55;;;6.10;99.90;;;;;;5079991;28;20507;-69
2023/04/28 01:36:27;;;;;;;35.75;22.42;;;6.10;99.90;;;;;;5077629;28;20086;-69
2023/04/28 01:38:53;;;;;;;31.85;23.00;;;6.10;99.90;;;;;;5076577;28;20151;-68
2023/04/28 01:41:20;;;;;;;35.45;21.40;;;6.00;99.90;;;;;;5078018;28;20493;-68
2023/04/28 01:43:45;;;;;;;44.78;25.17;;;6.00;99.90;;;;;;5081078;28;20516;-68
2023/04/28 01:46:11;;;;;;;40.17;23.35;;;6.00;99.90;;;;;;5084659;28;20075;-69
2023/04/28 01:48:36;;;;;;;39.17;23.20;;;6.00;99.90;;;;;;5080113;28;20677;-69
2023/04/28 01:51:02;;;;;;;31.60;21.85;;;6.10;99.90;;;;;;5080817;28;20134;-69
2023/04/28 01:53:28;;;;;;;33.75;22.92;;;6.00;99.90;;;;;;5076494;28;20051;-69
2023/04/28 01:55:54;;;;;;;30.10;21.77;;;6.10;99.90;;;;;;5079142;28;20052;-69
2023/04/28 01:58:19;;;;;;;38.42;21.95;;;6.00;99.90;;;;;;5081760;28;20054;-68
2023/04/28 02:00:46;;;;;;;36.65;22.33;;;6.10;99.90;;;;;;5076767;28;20346;-69
2023/04/28 02:03:12;;;;;;;32.05;20.75;;;6.00;99.90;;;;;;5077091;28;20085;-68
2023/04/28 02:05:37;;;;;;;30.85;22.30;;;6.00;99.90;;;;;;5077101;28;20051;-69
2023/04/28 02:08:03;;;;;;;37.42;24.40;;;6.00;99.90;;;;;;5077257;28;20040;-69
2023/04/28 02:10:29;;;;;;;36.45;24.50;;;6.00;99.90;;;;;;5077561;28;20043;-69
2023/04/28 02:12:54;;;;;;;32.78;23.40;;;6.00;99.90;;;;;;5073862;28;20041;-68
2023/04/28 02:15:20;;;;;;;41.60;23.88;;;6.00;99.90;;;;;;5078902;28;20538;-68
2023/04/28 02:17:46;;;;;;;34.80;23.08;;;6.00;99.90;;;;;;5079158;28;20047;-68
2023/04/28 02:20:13;;;;;;;37.00;23.60;;;6.00;99.90;;;;;;5076769;28;20047;-69
2023/04/28 02:22:39;;;;;;;34.63;23.95;;;6.00;99.90;;;;;;5077726;28;20512;-69
2023/04/28 02:25:07;;;;;;;31.88;23.02;;;5.90;99.90;;;;;;5075740;28;20052;-69
2023/04/28 02:27:38;;;;;;;37.65;22.90;;;5.90;99.90;;;;;;5076758;28;20044;-69
2023/04/28 02:30:04;;;;;;;44.85;24.65;;;5.90;99.90;;;;;;5084111;28;20044;-70
2023/04/28 02:32:30;;;;;;;37.85;24.85;;;5.90;99.90;;;;;;5080904;28;20044;-69
2023/04/28 02:34:56;;;;;;;35.75;23.45;;;5.90;99.90;;;;;;5078594;28;20048;-69
2023/04/28 02:37:22;;;;;;;37.47;25.90;;;5.90;99.90;;;;;;5071365;28;20132;-69
2023/04/28 02:39:48;;;;;;;36.70;23.67;;;5.90;99.90;;;;;;5073283;28;20127;-69
2023/04/28 02:42:14;;;;;;;36.78;24.65;;;5.90;99.90;;;;;;5070497;28;20033;-68
2023/04/28 02:44:39;;;;;;;40.38;24.95;;;5.80;99.90;;;;;;5080506;28;20676;-68
2023/04/28 02:47:05;;;;;;;39.38;24.25;;;5.90;99.90;;;;;;5084545;28;20308;-68
2023/04/28 02:49:32;;;;;;;38.85;27.08;;;5.80;99.90;;;;;;5081619;28;20552;-68
2023/04/28 02:51:57;;;;;;;41.22;25.42;;;5.80;99.90;;;;;;5077714;28;20408;-69
2023/04/28 02:54:26;;;;;;;37.38;25.20;;;5.80;99.90;;;;;;5074480;28;20517;-68
2023/04/28 02:56:55;;;;;;;44.40;28.38;;;5.80;99.90;;;;;;5076737;28;20032;-69
2023/04/28 02:59:22;;;;;;;39.53;27.05;;;5.80;99.90;;;;;;5078830;28;20044;-69
2023/04/28 03:01:48;;;;;;;44.30;27.50;;;5.70;99.90;;;;;;5081420;28;20076;-68
2023/04/28 03:04:14;;;;;;;41.72;27.17;;;5.70;99.90;;;;;;5069553;28;20124;-69
2023/04/28 03:06:40;;;;;;;47.17;27.55;;;5.60;99.90;;;;;;5079725;28;20127;-68
2023/04/28 03:09:07;;;;;;;42.47;27.15;;;5.60;99.90;;;;;;5085056;28;20048;-68
2023/04/28 03:11:32;;;;;;;42.45;26.33;;;5.60;99.90;;;;;;5084088;28;20123;-69
2023/04/28 03:13:58;;;;;;;50.70;27.30;;;5.60;99.90;;;;;;5087452;28;20190;-68
2023/04/28 03:16:23;;;;;;;51.05;27.42;;;5.50;99.90;;;;;;5082310;28;20046;-68
2023/04/28 03:18:49;;;;;;;43.28;28.10;;;5.50;99.90;;;;;;5080298;28;20040;-69
2023/04/28 03:21:15;;;;;;;43.05;28.65;;;5.50;99.90;;;;;;5078208;28;20045;-68
2023/04/28 03:23:41;;;;;;;46.28;27.50;;;5.40;99.90;;;;;;5074921;28;20410;-68
2023/04/28 03:26:07;;;;;;;46.45;29.02;;;5.40;99.90;;;;;;5081394;28;20480;-68
2023/04/28 03:28:33;;;;;;;42.47;28.83;;;5.40;99.90;;;;;;5085460;28;20067;-68
2023/04/28 03:30:59;;;;;;;43.95;29.55;;;5.30;99.90;;;;;;5082162;28;20044;-68
2023/04/28 03:33:25;;;;;;;48.58;29.63;;;5.30;99.90;;;;;;5081495;28;20606;-69
2023/04/28 03:35:50;;;;;;;43.38;29.60;;;5.30;99.90;;;;;;5076357;28;20040;-68
2023/04/28 03:38:16;;;;;;;43.53;28.40;;;5.30;99.90;;;;;;5078664;28;20127;-68
2023/04/28 03:40:42;;;;;;;45.53;29.38;;;5.30;99.90;;;;;;5076397;28;20466;-69
2023/04/28 03:43:08;;;;;;;44.38;29.70;;;5.30;99.90;;;;;;5081567;28;20036;-69
2023/04/28 03:45:34;;;;;;;44.17;28.70;;;5.30;99.90;;;;;;5076739;28;20385;-68
2023/04/28 03:47:59;;;;;;;47.15;30.10;;;5.30;99.90;;;;;;5083112;28;20155;-68
2023/04/28 03:50:25;;;;;;;41.80;27.92;;;5.30;99.90;;;;;;5076631;28;20040;-68
2023/04/28 03:52:51;;;;;;;57.60;30.50;;;5.30;99.90;;;;;;5083737;28;20432;-68
2023/04/28 03:55:16;;;;;;;54.17;30.17;;;5.30;99.90;;;;;;5083985;28;20392;-68
2023/04/28 03:57:42;;;;;;;45.08;30.52;;;5.30;99.90;;;;;;5072379;28;20040;-69
2023/04/28 04:00:08;;;;;;;48.45;30.33;;;5.30;99.90;;;;;;5072798;28;20539;-68
2023/04/28 04:02:34;;;;;;;41.00;27.88;;;5.30;99.90;;;;;;5085058;28;20036;-68
2023/04/28 04:05:00;;;;;;;48.95;28.20;;;5.30;99.90;;;;;;5071808;28;20597;-69
2023/04/28 04:07:26;;;;;;;40.05;28.00;;;5.30;99.90;;;;;;5079423;28;20040;-68
2023/04/28 04:09:51;;;;;;;48.92;28.50;;;5.30;99.90;;;;;;5076582;28;20078;-69
2023/04/28 04:12:18;;;;;;;42.63;29.58;;;5.30;99.90;;;;;;5077203;28;20446;-69
2023/04/28 04:14:44;;;;;;;40.42;29.75;;;5.40;99.90;;;;;;5077693;28;20048;-69
2023/04/28 04:17:09;;;;;;;45.90;30.15;;;5.40;99.90;;;;;;5081853;28;20048;-68
2023/04/28 04:19:35;;;;;;;43.38;27.90;;;5.50;99.90;;;;;;5079879;28;20047;-68
2023/04/28 04:22:00;;;;;;;43.85;28.80;;;5.50;99.90;;;;;;5081734;28;20043;-68
2023/04/28 04:24:26;;;;;;;43.58;28.10;;;5.60;99.90;;;;;;5084958;28;20503;-68
2023/04/28 04:26:52;;;;;;;41.20;28.60;;;5.50;99.90;;;;;;5077856;28;20048;-68
2023/04/28 04:29:17;;;;;;;43.20;27.50;;;5.60;99.90;;;;;;5073838;28;20116;-69
2023/04/28 04:31:44;;;;;;;42.50;28.58;;;5.60;99.90;;;;;;5082539;28;20047;-68
2023/04/28 04:34:10;;;;;;;41.42;27.60;;;5.60;99.90;;;;;;5073526;28;20062;-68
2023/04/28 04:36:36;;;;;;;43.67;27.98;;;5.60;99.90;;;;;;5077930;28;20040;-69
2023/04/28 04:39:01;;;;;;;45.70;28.55;;;5.60;99.90;;;;;;5091466;28;20055;-68
2023/04/28 04:41:27;;;;;;;42.25;30.25;;;5.60;99.90;;;;;;5077935;28;20520;-68
2023/04/28 04:43:53;;;;;;;42.47;29.15;;;5.70;99.90;;;;;;5076494;28;20522;-69
2023/04/28 04:46:18;;;;;;;42.78;27.75;;;5.80;99.90;;;;;;5077211;28;20076;-68
2023/04/28 04:48:44;;;;;;;50.03;29.30;;;6.00;99.90;;;;;;5075326;28;20816;-68
2023/04/28 04:51:10;;;;;;;43.35;28.92;;;5.90;99.90;;;;;;5075880;28;20474;-68
2023/04/28 04:53:36;;;;;;;47.22;30.35;;;5.90;99.90;;;;;;5066313;28;20048;-69
2023/04/28 04:56:02;;;;;;;49.35;30.92;;;5.90;99.90;;;;;;5078164;28;20044;-69
2023/04/28 04:58:28;;;;;;;43.40;31.52;;;5.80;99.90;;;;;;5085664;28;20044;-69
2023/04/28 05:00:53;;;;;;;44.38;28.85;;;5.80;99.90;;;;;;5074479;28;20454;-68
2023/04/28 05:03:19;;;;;;;54.55;29.02;;;5.80;99.90;;;;;;5073439;28;20040;-69
2023/04/28 05:05:45;;;;;;;42.08;28.63;;;5.80;99.90;;;;;;5082545;28;20074;-69
2023/04/28 05:08:12;;;;;;;41.83;27.02;;;5.80;99.90;;;;;;5080156;28;20093;-68
2023/04/28 05:10:37;;;;;;;47.90;27.02;;;5.90;99.90;;;;;;5081493;28;20036;-69
2023/04/28 05:13:03;;;;;;;42.88;27.65;;;5.90;99.90;;;;;;5080047;28;20621;-69
2023/04/28 05:15:29;;;;;;;53.45;29.38;;;5.90;99.90;;;;;;5079177;28;20044;-69
2023/04/28 05:17:55;;;;;;;45.30;29.67;;;5.90;99.90;;;;;;5075430;28;20046;-68
2023/04/28 05:20:21;;;;;;;42.38;28.13;;;5.90;99.90;;;;;;5078185;28;20040;-68
2023/04/28 05:22:47;;;;;;;47.15;29.70;;;5.90;99.90;;;;;;5078298;28;20047;-68
2023/04/28 05:25:16;;;;;;;45.42;29.40;;;6.00;99.90;;;;;;5078697;28;20047;-69
2023/04/28 05:27:42;;;;;;;45.75;28.58;;;6.00;99.90;;;;;;5076512;28;20047;-68
2023/04/28 05:30:09;;;;;;;47.42;29.63;;;6.00;99.90;;;;;;5078275;28;20036;-68
2023/04/28 05:32:36;;;;;;;46.80;29.35;;;6.00;99.90;;;;;;5110128;27;20051;-68
2023/04/28 05:35:02;;;;;;;43.47;26.10;;;6.10;99.90;;;;;;5075331;28;20041;-68
2023/04/28 05:37:27;;;;;;;44.90;27.65;;;6.10;99.90;;;;;;5076667;28;20036;-68
2023/04/28 05:39:53;;;;;;;41.80;25.88;;;6.10;99.90;;;;;;5082939;28;20040;-68
2023/04/28 05:42:19;;;;;;;34.55;25.77;;;6.20;99.90;;;;;;5063962;28;20047;-68
2023/04/28 05:44:45;;;;;;;37.90;26.55;;;6.30;99.90;;;;;;5064080;28;20044;-68
2023/04/28 05:47:11;;;;;;;43.17;27.75;;;6.40;99.90;;;;;;5065611;28;20051;-68
2023/04/28 05:49:37;;;;;;;37.63;25.40;;;6.40;99.90;;;;;;5063538;28;20070;-68
2023/04/28 05:52:03;;;;;;;39.45;27.17;;;6.40;99.90;;;;;;5064985;28;20045;-68
2023/04/28 05:54:29;;;;;;;39.10;25.90;;;6.50;99.90;;;;;;5064564;28;20044;-68
2023/04/28 05:56:54;;;;;;;38.60;25.70;;;6.50;99.90;;;;;;5065645;28;20488;-68
2023/04/28 05:59:20;;;;;;;46.88;26.10;;;6.60;99.90;;;;;;5065926;28;20562;-68
2023/04/28 06:01:46;;;;;;;43.42;25.58;;;6.60;99.90;;;;;;5062138;28;20071;-69
2023/04/28 06:04:12;;;;;;;38.05;26.65;;;6.70;99.90;;;;;;5062365;28;20101;-69
2023/04/28 06:06:39;;;;;;;39.00;25.90;;;6.70;99.90;;;;;;5062031;28;20041;-67
2023/04/28 06:09:04;;;;;;;38.63;25.27;;;6.70;99.90;;;;;;5063171;28;20056;-67
2023/04/28 06:11:30;;;;;;;41.60;24.83;;;6.80;99.90;;;;;;5060730;28;20036;-67
2023/04/28 06:13:56;;;;;;;36.28;24.73;;;6.80;99.90;;;;;;5062393;28;20105;-67
2023/04/28 06:16:22;;;;;;;37.72;23.38;;;6.80;99.90;;;;;;5064821;28;20043;-67
2023/04/28 06:18:48;;;;;;;40.92;24.65;;;6.80;99.90;;;;;;5065777;28;20075;-67
2023/04/28 06:21:16;;;;;;;34.72;24.00;;;6.80;99.90;;;;;;5064266;28;20076;-67
2023/04/28 06:23:41;;;;;;;39.78;24.67;;;6.80;99.90;;;;;;5064922;28;20068;-67
2023/04/28 06:26:07;;;;;;;36.80;22.73;;;6.80;99.90;;;;;;5062685;28;20891;-67
2023/04/28 06:28:33;;;;;;;34.95;22.63;;;6.90;99.90;;;;;;5062738;28;20071;-67
2023/04/28 06:30:59;;;;;;;36.17;24.17;;;6.90;99.90;;;;;;5062093;28;20274;-67
2023/04/28 06:33:25;;;;;;;37.70;22.42;;;6.90;99.90;;;;;;5062128;28;20047;-67
2023/04/28 06:35:51;;;;;;;34.72;22.75;;;6.90;99.90;;;;;;5061301;28;20113;-67
2023/04/28 06:38:17;;;;;;;33.03;23.63;;;6.90;99.90;;;;;;5057665;28;20541;-66
2023/04/28 06:40:44;;;;;;;35.13;22.98;;;6.90;99.90;;;;;;5064259;28;20056;-67
2023/04/28 06:43:11;;;;;;;37.25;23.50;;;6.90;99.90;;;;;;5064915;28;20119;-69
2023/04/28 06:45:37;;;;;;;26.02;21.52;;;6.90;99.90;;;;;;5066199;28;20070;-69
2023/04/28 06:48:03;;;;;;;32.42;22.73;;;6.90;99.90;;;;;;5064877;28;20053;-69
2023/04/28 06:50:29;;;;;;;35.40;23.25;;;6.80;99.90;;;;;;5066580;28;20124;-66
2023/04/28 06:52:55;;;;;;;34.55;25.52;;;6.90;99.90;;;;;;5068313;28;20139;-69
2023/04/28 06:55:21;;;;;;;43.28;23.65;;;6.90;99.90;;;;;;5065261;28;20135;-67
2023/04/28 06:57:46;;;;;;;38.20;24.58;;;6.90;99.90;;;;;;5067637;28;20043;-67
2023/04/28 07:00:13;;;;;;;32.60;21.83;;;6.90;99.90;;;;;;5067636;28;20082;-69
2023/04/28 07:02:38;;;;;;;33.58;23.08;;;7.00;99.90;;;;;;5066745;28;20048;-67
2023/04/28 07:05:05;;;;;;;37.63;25.20;;;7.00;99.90;;;;;;5067633;28;20460;-67
2023/04/28 07:07:31;;;;;;;35.03;25.13;;;7.00;99.90;;;;;;5068607;28;20036;-67
2023/04/28 07:09:57;;;;;;;34.60;22.15;;;7.10;99.90;;;;;;5069408;28;20763;-70
2023/04/28 07:12:23;;;;;;;36.28;23.92;;;7.10;99.90;;;;;;5067173;28;20147;-67
2023/04/28 07:14:49;;;;;;;32.33;23.55;;;7.20;99.90;;;;;;5066259;28;20544;-67
2023/04/28 07:17:15;;;;;;;45.85;24.25;;;7.20;99.90;;;;;;5064507;28;20048;-67
2023/04/28 07:19:42;;;;;;;35.28;22.70;;;7.20;99.90;;;;;;5065187;28;20067;-67
2023/04/28 07:22:07;;;;;;;31.88;23.42;;;7.20;99.90;;;;;;5066176;28;20067;-67
2023/04/28 07:24:35;;;;;;;40.25;23.25;;;7.30;99.90;;;;;;5068684;28;20032;-67
2023/04/28 07:27:03;;;;;;;34.95;23.60;;;7.30;99.90;;;;;;5066916;28;20047;-67
2023/04/28 07:29:32;;;;;;;34.87;24.17;;;7.30;99.90;;;;;;5066617;28;20062;-69
2023/04/28 07:32:00;;;;;;;42.67;25.02;;;7.40;99.90;;;;;;5066415;28;21040;-67
2023/04/28 07:34:27;;;;;;;36.85;23.50;;;7.40;99.90;;;;;;5065954;28;20294;-67
2023/04/28 07:36:53;;;;;;;45.10;23.25;;;7.40;99.90;;;;;;5065960;28;20059;-69
2023/04/28 07:39:19;;;;;;;32.35;20.20;;;7.40;99.90;;;;;;5065683;28;20075;-68
2023/04/28 07:41:44;;;;;;;30.23;22.23;;;7.40;99.90;;;;;;5066245;28;20131;-67
2023/04/28 07:44:10;;;;;;;44.83;25.02;;;7.50;99.90;;;;;;5067321;28;20615;-67
2023/04/28 07:46:36;;;;;;;32.13;22.60;;;7.50;99.90;;;;;;5067928;28;20040;-69
2023/04/28 07:49:03;;;;;;;38.47;22.45;;;7.50;99.90;;;;;;5066525;28;20051;-69
2023/04/28 07:51:29;;;;;;;33.47;22.30;;;7.60;99.90;;;;;;5066099;28;20052;-67
2023/04/28 07:53:56;;;;;;;31.83;21.48;;;7.60;99.90;;;;;;5065374;28;20064;-66
2023/04/28 07:56:23;;;;;;;33.92;22.92;;;7.70;99.90;;;;;;5066220;28;20055;-69
2023/04/28 07:58:48;;;;;;;37.45;21.58;;;7.80;99.90;;;;;;5098793;27;20059;-66
2023/04/28 08:01:14;;;;;;;39.55;22.48;;;7.80;99.90;;;;;;5066541;28;21305;-67
2023/04/28 08:03:40;;;;;;;30.17;22.40;;;7.80;99.90;;;;;;5062975;28;20632;-67
2023/04/28 08:06:06;;;;;;;28.85;22.73;;;7.90;99.90;;;;;;5063406;28;20422;-66
2023/04/28 08:08:32;;;;;;;30.23;21.35;;;8.00;99.90;;;;;;5045169;28;20058;-68
2023/04/28 08:11:00;;;;;;;31.33;20.63;;;8.10;99.90;;;;;;5064530;28;20048;-68
2023/04/28 08:13:27;;;;;;;25.48;20.23;;;8.20;99.90;;;;;;5097205;27;20107;-67
2023/04/28 08:15:55;;;;;;;32.30;20.90;;;8.30;99.90;;;;;;5063721;28;20053;-67
2023/04/28 08:18:21;;;;;;;32.08;21.38;;;8.30;99.90;;;;;;5067290;28;20040;-67
2023/04/28 08:20:47;;;;;;;32.13;20.80;;;8.40;99.90;;;;;;5095880;27;20493;-67
2023/04/28 08:23:13;;;;;;;30.80;20.52;;;8.40;99.90;;;;;;5064152;28;20052;-67
2023/04/28 08:25:38;;;;;;;27.15;19.05;;;8.50;99.90;;;;;;5065198;28;20044;-69
2023/04/28 08:28:05;;;;;;;26.58;20.42;;;8.60;99.90;;;;;;5063905;28;20123;-69
2023/04/28 08:30:31;;;;;;;32.65;18.75;;;8.70;99.90;;;;;;5065423;28;20669;-67
2023/04/28 08:32:56;;;;;;;25.67;19.40;;;8.80;99.90;;;;;;5065169;28;20048;-67
2023/04/28 08:35:22;;;;;;;29.83;20.00;;;8.90;99.90;;;;;;5063636;28;20056;-70
2023/04/28 08:37:48;;;;;;;24.70;18.40;;;9.00;99.90;;;;;;5067027;28;20045;-69
2023/04/28 08:40:14;;;;;;;32.22;19.23;;;9.10;99.90;;;;;;5066771;28;20040;-67
2023/04/28 08:42:41;;;;;;;30.50;18.08;;;9.30;99.90;;;;;;5066940;28;20076;-67
2023/04/28 08:45:08;;;;;;;23.90;18.25;;;9.40;99.90;;;;;;5069210;28;20082;-67
2023/04/28 08:47:40;;;;;;;27.17;19.27;;;9.50;99.90;;;;;;5096511;27;20055;-69
2023/04/28 08:50:08;;;;;;;26.45;20.33;;;9.60;99.90;;;;;;5064997;28;20045;-67
2023/04/28 08:52:35;;;;;;;25.20;19.08;;;9.70;99.90;;;;;;5062903;28;20052;-67
2023/04/28 08:55:06;;;;;;;31.65;21.48;;;9.70;99.90;;;;;;5067830;28;20062;-67
2023/04/28 08:57:48;;;;;;;23.23;19.42;;;9.70;99.90;;;;;;5066086;28;20044;-68
2023/04/28 09:00:14;;;;;;;31.95;20.48;;;9.60;99.90;;;;;;5066357;28;20053;-68
2023/04/28 09:02:41;;;;;;;35.47;22.10;;;9.60;99.90;;;;;;5063188;28;20044;-68
2023/04/28 09:05:11;;;;;;;26.50;20.30;;;9.60;99.90;;;;;;5063971;28;20098;-68
2023/04/28 09:07:37;;;;;;;28.70;19.90;;;9.60;99.90;;;;;;5064674;28;20050;-70
2023/04/28 09:10:20;;;;;;;25.65;18.27;;;9.60;99.90;;;;;;5081188;28;20036;-68
2023/04/28 09:12:48;;;;;;;27.70;19.88;;;9.60;99.90;;;;;;5097430;27;20126;-69
2023/04/28 09:15:28;;;;;;;30.35;20.40;;;9.60;99.90;;;;;;5064989;28;20052;-68
2023/04/28 09:17:53;;;;;;;29.55;20.98;;;9.50;99.90;;;;;;5063240;28;20872;-68
2023/04/28 09:20:24;;;;;;;26.00;19.80;;;9.70;99.90;;;;;;5065990;28;20045;-68
2023/04/28 09:22:51;;;;;;;32.55;20.25;;;9.70;99.90;;;;;;5064078;28;20574;-69
2023/04/28 09:25:20;;;;;;;31.80;22.35;;;9.80;99.90;;;;;;5065707;28;20044;-69
2023/04/28 09:27:45;;;;;;;;;;;9.90;99.90;;;;;;5067792;28;20093;-69
2023/04/28 09:30:11;;;;;;;23.17;19.25;;;9.90;99.90;;;;;;5067288;28;19924;-69
2023/04/28 09:32:37;;;;;;;37.28;21.15;;;10.20;99.90;;;;;;5047491;28;20829;-69
2023/04/28 09:35:03;;;;;;;24.98;20.45;;;10.30;99.90;;;;;;5066099;28;20047;-69
2023/04/28 09:37:30;;;;;;;31.58;22.88;;;10.40;99.90;;;;;;5066857;28;20031;-69
2023/04/28 09:40:02;;;;;;;31.80;20.65;;;10.50;99.90;;;;;;5064733;28;20039;-69
2023/04/28 09:42:35;;;;;;;27.65;20.02;;;10.50;99.90;;;;;;5066780;28;20051;-69
2023/04/28 09:45:02;;;;;;;25.30;21.85;;;10.50;99.90;;;;;;5064804;28;20048;-69
2023/04/28 09:47:31;;;;;;;41.80;21.50;;;10.60;99.90;;;;;;5066994;28;20044;-69
2023/04/28 09:49:58;;;;;;;22.45;19.98;;;10.60;99.90;;;;;;5066182;28;20771;-69
2023/04/28 09:52:25;;;;;;;27.03;21.53;;;10.70;99.90;;;;;;5099045;27;20065;-69
2023/04/28 09:54:53;;;;;;;25.63;21.08;;;10.70;99.90;;;;;;5066385;28;20643;-69
2023/04/28 09:57:21;;;;;;;39.45;21.48;;;10.80;99.90;;;;;;5064508;28;20542;-69
2023/04/28 09:59:48;;;;;;;27.60;22.10;;;10.80;99.90;;;;;;5065697;28;20061;-70
2023/04/28 10:02:16;;;;;;;24.92;20.92;;;10.90;99.90;;;;;;5065544;28;20058;-69
2023/04/28 10:04:47;;;;;;;29.40;21.20;;;11.00;99.90;;;;;;5063368;28;20052;-69
2023/04/28 10:07:19;;;;;;;32.55;22.08;;;11.20;99.90;;;;;;5067001;28;20132;-69
2023/04/28 10:09:49;;;;;;;32.00;21.55;;;11.20;99.90;;;;;;5064133;28;20170;-69
2023/04/28 10:12:20;;;;;;;31.42;23.63;;;11.30;99.90;;;;;;5058485;28;20044;-69
2023/04/28 10:14:49;;;;;;;32.63;21.92;;;11.40;99.90;;;;;;5065328;28;20097;-69
2023/04/28 10:17:18;;;;;;;28.23;21.40;;;11.60;99.90;;;;;;5095519;27;20091;-69
2023/04/28 10:19:45;;;;;;;26.30;21.95;;;11.70;99.90;;;;;;5065856;28;20671;-69
2023/04/28 10:22:45;;;;;;;25.42;20.92;;;11.80;99.90;;;;;;5064843;28;20045;-69
2023/04/28 10:25:12;;;;;;;27.55;22.42;;;11.90;99.90;;;;;;5062353;28;20512;-69
2023/04/28 10:27:43;;;;;;;26.13;19.98;;;12.20;99.90;;;;;;5065011;28;20107;-69
2023/04/28 10:30:18;;;;;;;28.70;22.67;;;12.50;99.90;;;;;;5064361;28;20044;-70
2023/04/28 10:32:48;;;;;;;25.60;20.95;;;12.60;99.90;;;;;;5065207;28;20964;-69
2023/04/28 10:35:35;;;;;;;28.30;20.27;;;12.50;99.90;;;;;;5063283;28;20078;-70
2023/04/28 10:38:09;;;;;;;29.30;22.15;;;12.50;99.90;;;;;;5062979;28;20156;-69
2023/04/28 10:40:36;;;;;;;24.85;20.50;;;12.50;99.90;;;;;;5062195;28;20044;-69
2023/04/28 10:43:02;;;;;;;27.20;21.60;;;12.50;99.90;;;;;;5062678;28;20560;-69
2023/04/28 10:46:00;;;;;;;26.98;19.83;;;12.50;99.90;;;;;;5062991;28;20055;-69
2023/04/28 10:48:29;;;;;;;25.33;21.20;;;12.60;99.90;;;;;;5063527;28;20603;-69
2023/04/28 10:51:04;;;;;;;21.65;17.25;;;12.70;99.90;;;;;;5062985;28;20040;-69
2023/04/28 10:53:44;;;;;;;24.38;18.73;;;12.80;99.90;;;;;;5059831;28;20671;-69
2023/04/28 10:56:20;;;;;;;29.75;20.15;;;12.90;99.90;;;;;;5044612;28;20044;-70
2023/04/28 10:58:48;;;;;;;30.00;21.27;;;13.10;99.90;;;;;;5045380;28;20060;-70
2023/04/28 11:01:20;;;;;;;27.90;20.25;;;13.10;99.90;;;;;;5063716;28;20044;-70
2023/04/28 11:03:50;;;;;;;22.48;19.33;;;13.20;99.90;;;;;;5061740;28;20471;-71
2023/04/28 11:06:34;;;;;;;24.52;19.75;;;13.20;99.90;;;;;;5061663;28;20056;-70
2023/04/28 11:09:29;;;;;;;31.42;20.92;;;13.20;99.90;;;;;;5064757;28;20616;-71
2023/04/28 11:12:09;;;;;;;25.38;21.48;;;13.20;99.90;;;;;;5065382;28;20995;-70
2023/04/28 11:14:39;;;;;;;26.50;21.40;;;13.30;99.90;;;;;;5063761;28;20058;-71
2023/04/28 11:17:10;;;;;;;31.52;20.00;;;13.30;99.90;;;;;;5062997;28;20040;-70
2023/04/28 11:19:37;;;;;;;23.85;18.95;;;13.50;99.90;;;;;;5064766;28;20048;-70
2023/04/28 11:22:14;;;;;;;22.13;19.45;;;13.50;99.90;;;;;;5092819;27;20036;-70
2023/04/28 11:24:40;;;;;;;23.00;19.92;;;13.70;99.90;;;;;;5062516;28;20413;-70
2023/04/28 11:27:07;;;;;;;28.85;21.13;;;13.80;99.90;;;;;;5080476;28;20420;-70
2023/04/28 11:29:42;;;;;;;31.55;20.83;;;13.80;99.90;;;;;;5066449;28;20043;-71
2023/04/28 11:32:09;;;;;;;31.50;21.63;;;13.80;99.90;;;;;;5068861;28;20052;-70
2023/04/28 11:34:36;;;;;;;23.50;20.20;;;13.80;99.90;;;;;;5069953;28;20904;-71
2023/04/28 11:37:02;;;;;;;27.30;21.25;;;13.80;99.90;;;;;;5067336;28;20059;-70
2023/04/28 11:39:30;;;;;;;26.17;20.90;;;13.80;99.90;;;;;;5067158;28;20049;-70
2023/04/28 11:41:58;;;;;;;24.40;20.55;;;13.80;99.90;;;;;;5065289;28;20111;-70
2023/04/28 11:44:26;;;;;;;25.23;22.40;;;13.70;99.90;;;;;;5067402;28;20837;-70
2023/04/28 11:47:00;;;;;;;35.85;19.88;;;13.60;99.90;;;;;;5068072;28;20040;-70
2023/04/28 11:49:30;;;;;;;26.92;22.10;;;13.60;99.90;;;;;;5067317;28;20493;-71
2023/04/28 11:52:06;;;;;;;30.50;20.92;;;13.60;99.90;;;;;;5069000;28;20056;-70
2023/04/28 11:54:32;;;;;;;23.67;20.13;;;13.50;99.90;;;;;;5065645;28;21250;-71
2023/04/28 11:56:59;;;;;;;29.95;22.13;;;13.50;99.90;;;;;;5066085;28;20078;-70
2023/04/28 11:59:27;;;;;;;42.42;20.85;;;13.70;99.90;;;;;;5097148;27;20059;-70
2023/04/28 12:01:58;;;;;;;33.75;22.02;;;13.60;99.90;;;;;;5064920;28;20051;-70
2023/04/28 12:04:37;;;;;;;25.52;20.92;;;13.60;99.90;;;;;;5064933;28;20040;-70
2023/04/28 12:07:06;;;;;;;26.55;21.52;;;13.60;99.90;;;;;;5066064;28;20041;-70
2023/04/28 12:09:33;;;;;;;24.05;21.08;;;13.60;99.90;;;;;;5065302;28;20048;-70
2023/04/28 12:12:01;;;;;;;27.40;20.77;;;13.60;99.90;;;;;;5065390;28;20080;-70
2023/04/28 12:14:31;;;;;;;22.75;20.30;;;13.60;99.90;;;;;;5066677;28;20056;-70
2023/04/28 12:16:57;;;;;;;30.25;22.70;;;13.50;99.90;;;;;;5066882;28;20041;-70
2023/04/28 12:19:23;;;;;;;29.05;22.75;;;13.50;99.90;;;;;;5065467;28;20058;-70
2023/04/28 12:22:18;;;;;;;29.25;21.40;;;13.50;99.90;;;;;;5066239;28;20581;-70
2023/04/28 12:24:45;;;;;;;26.42;20.90;;;13.60;99.90;;;;;;5050517;28;20052;-70
2023/04/28 12:27:20;;;;;;;28.35;20.25;;;13.60;99.90;;;;;;5063205;28;20082;-70
2023/04/28 12:29:47;;;;;;;25.00;20.77;;;13.60;99.90;;;;;;5065211;28;20164;-70
2023/04/28 12:32:16;;;;;;;35.67;23.17;;;13.50;99.90;;;;;;5065762;28;21026;-70
2023/04/28 12:34:44;;;;;;;37.65;22.05;;;13.50;99.90;;;;;;5063481;28;20056;-70
2023/04/28 12:37:11;;;;;;;29.42;22.85;;;13.40;99.90;;;;;;5066005;28;20046;-70